Time;durP1;ratioP1;P1;durP2;ratioP2;P2;SDS_P1;SDS_P2;PMS_P1;PMS_P2;Temp;Humidity;BMP_temperature;BMP_pressure;BME280_temperature;BME280_humidity;BME280_pressure;Samples;Min_cycle;Max_cycle;Signal;HPM_P1;HPM_P2
2023/04/23 00:01:26;;;;;;;96.07;46.17;;;9.20;99.90;;;;;;5074463;28;20024;-70
2023/04/23 00:03:56;;;;;;;94.55;47.13;;;9.20;99.90;;;;;;5074423;28;20021;-69
2023/04/23 00:06:22;;;;;;;94.68;44.53;;;9.20;99.90;;;;;;5073056;28;20033;-70
2023/04/23 00:08:51;;;;;;;87.07;44.53;;;9.20;99.90;;;;;;5073136;28;20379;-70
2023/04/23 00:11:16;;;;;;;89.38;43.53;;;9.20;99.90;;;;;;5072923;28;20043;-70
2023/04/23 00:13:43;;;;;;;89.40;44.15;;;9.20;99.90;;;;;;5073247;28;20028;-71
2023/04/23 00:16:09;;;;;;;93.57;45.65;;;9.20;99.90;;;;;;5072684;28;20032;-70
2023/04/23 00:18:35;;;;;;;93.35;44.60;;;9.20;99.90;;;;;;5072894;28;20029;-71
2023/04/23 00:21:01;;;;;;;90.93;44.50;;;9.10;99.90;;;;;;5073113;28;20103;-71
2023/04/23 00:23:27;;;;;;;97.70;46.42;;;9.10;99.90;;;;;;5072782;28;20032;-70
2023/04/23 00:25:53;;;;;;;104.63;48.70;;;9.10;99.90;;;;;;5070462;28;20107;-70
2023/04/23 00:28:18;;;;;;;100.25;45.80;;;9.00;99.90;;;;;;5072191;28;20128;-70
2023/04/23 00:30:44;;;;;;;105.18;48.47;;;9.00;99.90;;;;;;5072875;28;20190;-70
2023/04/23 00:33:10;;;;;;;106.45;48.45;;;9.00;99.90;;;;;;5072525;28;20028;-70
2023/04/23 00:35:36;;;;;;;99.43;46.85;;;8.90;99.90;;;;;;5072835;28;20039;-70
2023/04/23 00:38:01;;;;;;;107.07;48.13;;;8.90;99.90;;;;;;5072577;28;20444;-70
2023/04/23 00:40:27;;;;;;;116.35;50.78;;;8.90;99.90;;;;;;5072812;28;20052;-70
2023/04/23 00:42:53;;;;;;;109.72;50.03;;;8.90;99.90;;;;;;5072273;28;20021;-70
2023/04/23 00:45:19;;;;;;;107.38;48.80;;;8.90;99.90;;;;;;5072466;28;20099;-70
2023/04/23 00:47:45;;;;;;;115.88;49.22;;;8.90;99.90;;;;;;5073317;28;20112;-69
2023/04/23 00:50:12;;;;;;;118.60;51.95;;;8.90;99.90;;;;;;5073726;28;20028;-69
2023/04/23 00:52:39;;;;;;;112.47;50.92;;;8.90;99.90;;;;;;5073606;28;20021;-70
2023/04/23 00:55:07;;;;;;;121.30;53.35;;;8.90;99.90;;;;;;5073834;28;20112;-70
2023/04/23 00:57:33;;;;;;;124.07;50.95;;;9.00;99.90;;;;;;5072543;28;20100;-70
2023/04/23 00:59:59;;;;;;;119.55;52.80;;;9.10;99.90;;;;;;5072332;28;20029;-70
2023/04/23 01:02:26;;;;;;;120.78;52.72;;;9.20;99.90;;;;;;5073803;28;20360;-70
2023/04/23 01:04:53;;;;;;;118.50;52.97;;;9.20;99.90;;;;;;5073586;28;20372;-70
2023/04/23 01:07:21;;;;;;;115.93;52.45;;;9.30;99.90;;;;;;5073560;28;20039;-70
2023/04/23 01:09:48;;;;;;;111.68;51.97;;;9.30;99.90;;;;;;5071851;28;20037;-70
2023/04/23 01:12:14;;;;;;;109.22;51.05;;;9.40;99.90;;;;;;5073094;28;20035;-70
2023/04/23 01:14:41;;;;;;;109.97;50.95;;;9.40;99.90;;;;;;5073348;28;20028;-70
2023/04/23 01:17:08;;;;;;;103.38;48.88;;;9.40;99.90;;;;;;5073435;28;20050;-70
2023/04/23 01:19:34;;;;;;;103.45;48.42;;;9.40;99.90;;;;;;5071340;28;20024;-70
2023/04/23 01:22:00;;;;;;;102.13;48.83;;;9.40;99.90;;;;;;5072993;28;20108;-70
2023/04/23 01:24:30;;;;;;;98.25;47.08;;;9.50;99.90;;;;;;5073091;28;20074;-70
2023/04/23 01:26:57;;;;;;;103.53;47.25;;;9.50;99.90;;;;;;5073159;28;20469;-70
2023/04/23 01:29:23;;;;;;;93.50;45.83;;;9.50;99.90;;;;;;5073003;28;20044;-70
2023/04/23 01:31:50;;;;;;;96.05;45.13;;;9.50;99.90;;;;;;5072775;28;20035;-70
2023/04/23 01:34:16;;;;;;;100.95;47.00;;;9.50;99.90;;;;;;5072869;28;20024;-69
2023/04/23 01:36:43;;;;;;;106.88;46.55;;;9.40;99.90;;;;;;5072719;28;20029;-70
2023/04/23 01:39:08;;;;;;;106.00;48.08;;;9.30;99.90;;;;;;5072860;28;20035;-69
2023/04/23 01:41:35;;;;;;;104.30;45.83;;;9.40;99.90;;;;;;5072968;28;20498;-69
2023/04/23 01:44:01;;;;;;;104.88;48.15;;;9.40;99.90;;;;;;5071880;28;20025;-70
2023/04/23 01:46:27;;;;;;;107.60;50.15;;;9.40;99.90;;;;;;5072843;28;20388;-70
2023/04/23 01:48:53;;;;;;;100.85;49.03;;;9.40;99.90;;;;;;5072882;28;20033;-69
2023/04/23 01:51:18;;;;;;;107.20;48.63;;;9.40;99.90;;;;;;5072688;28;20098;-69
2023/04/23 01:53:44;;;;;;;113.60;49.47;;;9.50;99.90;;;;;;5072619;28;20052;-70
2023/04/23 01:56:11;;;;;;;108.32;48.13;;;9.50;99.90;;;;;;5072750;28;20510;-70
2023/04/23 01:58:37;;;;;;;109.88;49.90;;;9.60;99.90;;;;;;5072498;28;20020;-70
2023/04/23 02:01:02;;;;;;;104.18;48.90;;;9.60;99.90;;;;;;5072665;28;20108;-70
2023/04/23 02:03:29;;;;;;;98.68;47.67;;;9.60;99.90;;;;;;5070832;28;20171;-69
2023/04/23 02:05:55;;;;;;;103.47;48.60;;;9.60;99.90;;;;;;5072301;28;20116;-69
2023/04/23 02:08:21;;;;;;;101.95;48.10;;;9.60;99.90;;;;;;5072277;28;20047;-70
2023/04/23 02:10:47;;;;;;;101.88;47.42;;;9.70;99.90;;;;;;5070699;28;20093;-70
2023/04/23 02:13:13;;;;;;;101.82;46.63;;;9.60;99.90;;;;;;5071555;28;20040;-70
2023/04/23 02:15:39;;;;;;;103.10;46.80;;;9.70;99.90;;;;;;5071950;28;20108;-70
2023/04/23 02:18:05;;;;;;;99.88;46.45;;;9.70;99.90;;;;;;5072094;28;20112;-70
2023/04/23 02:20:31;;;;;;;84.15;42.92;;;9.80;99.90;;;;;;5072707;28;20033;-70
2023/04/23 02:22:57;;;;;;;86.30;41.30;;;9.80;99.90;;;;;;5072214;28;20562;-69
2023/04/23 02:25:22;;;;;;;94.22;44.63;;;9.80;99.90;;;;;;5072015;28;20025;-67
2023/04/23 02:27:48;;;;;;;96.85;46.75;;;9.80;99.90;;;;;;5069832;28;20033;-68
2023/04/23 02:30:14;;;;;;;94.07;46.85;;;9.80;99.90;;;;;;5059932;28;20108;-67
2023/04/23 02:32:41;;;;;;;92.80;43.95;;;9.80;99.90;;;;;;5068080;28;20103;-68
2023/04/23 02:35:08;;;;;;;93.70;43.30;;;9.80;99.90;;;;;;5071557;28;20028;-68
2023/04/23 02:37:35;;;;;;;97.65;45.65;;;9.80;99.90;;;;;;5071876;28;20076;-68
2023/04/23 02:40:03;;;;;;;91.88;46.20;;;9.80;99.90;;;;;;5072196;28;20021;-68
2023/04/23 02:42:29;;;;;;;93.10;43.65;;;9.80;99.90;;;;;;5069202;28;20024;-68
2023/04/23 02:44:55;;;;;;;67.35;29.60;;;9.80;99.90;;;;;;5063797;28;20527;-69
2023/04/23 02:47:20;;;;;;;86.20;40.85;;;9.70;99.90;;;;;;5068248;28;20457;-68
2023/04/23 02:49:46;;;;;;;81.45;39.22;;;9.70;99.90;;;;;;5071711;28;20069;-69
2023/04/23 02:52:11;;;;;;;85.88;42.72;;;9.70;99.90;;;;;;5071811;28;20024;-68
2023/04/23 02:54:37;;;;;;;73.65;35.65;;;9.70;99.90;;;;;;5072049;28;20021;-69
2023/04/23 02:57:04;;;;;;;68.50;31.55;;;9.70;99.90;;;;;;5072037;28;20024;-69
2023/04/23 02:59:29;;;;;;;72.32;37.05;;;9.60;99.90;;;;;;5071724;28;20036;-69
2023/04/23 03:01:55;;;;;;;69.63;35.03;;;9.60;99.90;;;;;;5071863;28;20020;-70
2023/04/23 03:04:20;;;;;;;74.65;38.22;;;9.60;99.90;;;;;;5071723;28;20031;-68
2023/04/23 03:06:46;;;;;;;78.32;38.75;;;9.60;99.90;;;;;;5071466;28;20157;-69
2023/04/23 03:09:12;;;;;;;71.70;36.22;;;9.60;99.90;;;;;;5071965;28;20078;-69
2023/04/23 03:11:38;;;;;;;65.70;34.65;;;9.60;99.90;;;;;;5071756;28;20093;-67
2023/04/23 03:14:04;;;;;;;79.70;39.13;;;9.60;99.90;;;;;;5071474;28;20029;-68
2023/04/23 03:16:30;;;;;;;77.68;39.65;;;9.50;99.90;;;;;;5071759;28;20031;-67
2023/04/23 03:18:56;;;;;;;72.38;33.38;;;9.50;99.90;;;;;;5071764;28;20017;-69
2023/04/23 03:21:22;;;;;;;68.82;32.92;;;9.50;99.90;;;;;;5073092;28;20060;-67
2023/04/23 03:23:48;;;;;;;77.10;38.67;;;9.50;99.90;;;;;;5075243;28;20044;-68
2023/04/23 03:26:13;;;;;;;64.13;32.40;;;9.40;99.90;;;;;;5067925;28;20025;-68
2023/04/23 03:28:39;;;;;;;75.70;37.08;;;9.50;99.90;;;;;;5065901;28;20131;-70
2023/04/23 03:31:04;;;;;;;69.30;32.75;;;9.50;99.90;;;;;;5075190;28;20590;-67
2023/04/23 03:33:30;;;;;;;73.93;38.35;;;9.50;99.90;;;;;;5074866;28;20074;-67
2023/04/23 03:35:55;;;;;;;76.00;39.72;;;9.50;99.90;;;;;;5074573;28;20028;-69
2023/04/23 03:38:21;;;;;;;73.13;37.17;;;9.40;99.90;;;;;;5074951;28;20021;-68
2023/04/23 03:40:47;;;;;;;79.05;37.45;;;9.40;99.90;;;;;;5075029;28;20050;-68
2023/04/23 03:43:12;;;;;;;65.20;31.77;;;9.30;99.90;;;;;;5063503;28;20032;-68
2023/04/23 03:45:38;;;;;;;75.18;39.47;;;9.30;99.90;;;;;;5073528;28;20112;-68
2023/04/23 03:48:04;;;;;;;77.68;37.92;;;9.30;99.90;;;;;;5075099;28;20107;-69
2023/04/23 03:50:33;;;;;;;71.97;36.30;;;9.30;99.90;;;;;;5074151;28;20503;-69
2023/04/23 03:52:58;;;;;;;73.07;37.97;;;9.30;99.90;;;;;;5070351;28;20025;-69
2023/04/23 03:55:24;;;;;;;71.85;37.17;;;9.30;99.90;;;;;;5074102;28;20031;-69
2023/04/23 03:57:49;;;;;;;72.65;37.47;;;9.40;99.90;;;;;;5072650;28;20024;-69
2023/04/23 04:00:15;;;;;;;76.20;40.20;;;9.40;99.90;;;;;;5072579;28;20052;-70
2023/04/23 04:02:41;;;;;;;72.85;38.13;;;9.50;99.90;;;;;;5073948;28;20028;-69
2023/04/23 04:05:08;;;;;;;77.85;39.70;;;9.50;99.90;;;;;;5073917;28;20027;-70
2023/04/23 04:07:34;;;;;;;67.25;34.75;;;9.60;99.90;;;;;;5074417;28;20369;-69
2023/04/23 04:10:02;;;;;;;66.70;36.03;;;9.60;99.90;;;;;;5074248;28;20415;-69
2023/04/23 04:12:28;;;;;;;69.50;35.55;;;9.60;99.90;;;;;;5074452;28;20391;-68
2023/04/23 04:14:53;;;;;;;64.53;34.92;;;9.60;99.90;;;;;;5073971;28;20464;-69
2023/04/23 04:17:19;;;;;;;66.75;36.58;;;9.60;99.90;;;;;;5074367;28;20050;-69
2023/04/23 04:19:45;;;;;;;60.00;33.28;;;9.70;99.90;;;;;;5073798;28;20040;-68
2023/04/23 04:22:10;;;;;;;64.90;34.92;;;9.70;99.90;;;;;;5074031;28;20020;-69
2023/04/23 04:24:36;;;;;;;61.88;32.67;;;9.70;99.90;;;;;;5074124;28;20017;-69
2023/04/23 04:27:03;;;;;;;64.07;33.97;;;9.80;99.90;;;;;;5074192;28;20063;-69
2023/04/23 04:29:30;;;;;;;64.88;36.72;;;9.80;99.90;;;;;;5073636;28;20041;-69
2023/04/23 04:31:56;;;;;;;64.13;31.63;;;9.80;99.90;;;;;;5073139;28;20064;-68
2023/04/23 04:34:22;;;;;;;50.33;27.88;;;9.80;99.90;;;;;;5073322;28;20016;-67
2023/04/23 04:36:48;;;;;;;68.72;37.35;;;9.80;99.90;;;;;;5073892;28;20183;-66
2023/04/23 04:39:13;;;;;;;62.72;34.38;;;9.70;99.90;;;;;;5073580;28;20453;-67
2023/04/23 04:41:40;;;;;;;62.35;30.88;;;9.70;99.90;;;;;;5073837;28;20024;-68
2023/04/23 04:44:07;;;;;;;65.90;35.60;;;9.80;99.90;;;;;;5066872;28;20048;-67
2023/04/23 04:46:33;;;;;;;62.22;33.42;;;9.80;99.90;;;;;;5065893;28;20012;-68
2023/04/23 04:48:59;;;;;;;63.38;33.17;;;9.80;99.90;;;;;;5073277;28;20107;-68
2023/04/23 04:51:25;;;;;;;54.17;29.58;;;9.80;99.90;;;;;;5072941;28;20124;-67
2023/04/23 04:53:51;;;;;;;57.92;28.75;;;9.80;99.90;;;;;;5072633;28;20408;-68
2023/04/23 04:56:17;;;;;;;57.83;32.33;;;9.80;99.90;;;;;;5073218;28;20016;-69
2023/04/23 04:58:42;;;;;;;61.00;34.88;;;9.90;99.90;;;;;;5073148;28;20395;-69
2023/04/23 05:01:09;;;;;;;58.72;32.55;;;9.90;99.90;;;;;;5073008;28;20025;-69
2023/04/23 05:03:35;;;;;;;50.47;27.15;;;9.90;99.90;;;;;;5073270;28;20068;-68
2023/04/23 05:06:01;;;;;;;54.03;30.55;;;9.90;99.90;;;;;;5073283;28;20488;-69
2023/04/23 05:08:26;;;;;;;54.63;30.50;;;9.90;99.90;;;;;;5073526;28;20116;-68
2023/04/23 05:10:55;;;;;;;55.22;29.48;;;9.90;99.90;;;;;;5072901;28;20388;-70
2023/04/23 05:13:21;;;;;;;62.33;34.75;;;9.90;99.90;;;;;;5072902;28;20027;-68
2023/04/23 05:15:46;;;;;;;65.18;36.38;;;9.90;99.90;;;;;;5072318;28;20024;-69
2023/04/23 05:18:12;;;;;;;57.20;31.10;;;10.00;99.90;;;;;;5072827;28;20495;-70
2023/04/23 05:20:38;;;;;;;53.67;29.02;;;10.10;99.90;;;;;;5072836;28;20499;-69
2023/04/23 05:23:03;;;;;;;50.42;29.30;;;10.10;99.90;;;;;;5072706;28;20162;-69
2023/04/23 05:25:30;;;;;;;56.67;33.03;;;10.10;99.90;;;;;;5072539;28;20421;-68
2023/04/23 05:27:57;;;;;;;52.08;29.02;;;10.20;99.90;;;;;;5072438;28;20056;-69
2023/04/23 05:30:22;;;;;;;51.70;28.02;;;10.20;99.90;;;;;;5072376;28;20111;-70
2023/04/23 05:32:48;;;;;;;56.58;31.73;;;10.20;99.90;;;;;;5073113;28;20099;-68
2023/04/23 05:35:14;;;;;;;50.10;29.40;;;10.20;99.90;;;;;;5071817;28;20029;-68
2023/04/23 05:37:40;;;;;;;50.45;28.67;;;10.20;99.90;;;;;;5063504;28;20480;-70
2023/04/23 05:40:06;;;;;;;50.38;26.80;;;10.20;99.90;;;;;;5072788;28;20028;-70
2023/04/23 05:42:34;;;;;;;44.95;25.40;;;10.20;99.90;;;;;;5072457;28;20021;-70
2023/04/23 05:44:59;;;;;;;49.38;28.90;;;10.20;99.90;;;;;;5072171;28;20082;-68
2023/04/23 05:47:25;;;;;;;49.40;29.65;;;10.30;99.90;;;;;;5072132;28;20464;-68
2023/04/23 05:49:51;;;;;;;46.13;26.92;;;10.30;99.90;;;;;;5071092;28;20470;-70
2023/04/23 05:52:17;;;;;;;44.90;24.42;;;10.40;99.90;;;;;;5072567;28;20025;-70
2023/04/23 05:54:43;;;;;;;48.33;28.05;;;10.50;99.90;;;;;;5072180;28;20032;-69
2023/04/23 05:57:09;;;;;;;46.83;27.63;;;10.50;99.90;;;;;;5072186;28;20070;-70
2023/04/23 05:59:35;;;;;;;46.00;26.13;;;10.60;99.90;;;;;;5072463;28;20033;-69
2023/04/23 06:02:01;;;;;;;40.95;22.92;;;10.60;99.90;;;;;;5072579;28;20027;-68
2023/04/23 06:04:27;;;;;;;44.45;26.45;;;10.60;99.90;;;;;;5072639;28;20457;-69
2023/04/23 06:06:52;;;;;;;44.00;26.92;;;10.60;99.90;;;;;;5072527;28;20070;-69
2023/04/23 06:09:18;;;;;;;33.30;19.73;;;10.70;99.90;;;;;;5072589;28;20025;-70
2023/04/23 06:11:43;;;;;;;41.42;25.40;;;10.80;99.90;;;;;;5072116;28;20131;-69
2023/04/23 06:14:09;;;;;;;41.58;25.08;;;10.80;99.90;;;;;;5071689;28;20159;-67
2023/04/23 06:16:35;;;;;;;40.47;24.05;;;10.90;99.90;;;;;;5072107;28;20087;-69
2023/04/23 06:19:00;;;;;;;38.65;22.40;;;11.00;99.90;;;;;;5072046;28;20117;-68
2023/04/23 06:21:26;;;;;;;34.03;19.58;;;11.10;99.90;;;;;;5071876;28;20350;-70
2023/04/23 06:23:52;;;;;;;34.70;18.30;;;11.10;99.90;;;;;;5072255;28;20500;-69
2023/04/23 06:26:17;;;;;;;32.42;18.70;;;11.20;99.90;;;;;;5072003;28;20091;-70
2023/04/23 06:28:45;;;;;;;36.65;19.00;;;11.30;99.90;;;;;;5071508;28;20135;-71
2023/04/23 06:31:11;;;;;;;34.20;18.70;;;11.50;99.90;;;;;;5071653;28;20028;-70
2023/04/23 06:33:36;;;;;;;35.55;20.70;;;11.50;99.90;;;;;;5072057;28;20032;-70
2023/04/23 06:36:03;;;;;;;35.90;19.17;;;11.70;99.90;;;;;;5072181;28;20039;-68
2023/04/23 06:38:29;;;;;;;31.20;16.83;;;12.00;99.90;;;;;;5071944;28;20514;-70
2023/04/23 06:40:54;;;;;;;31.50;15.63;;;12.30;99.90;;;;;;5071946;28;20020;-69
2023/04/23 06:43:20;;;;;;;27.20;16.92;;;12.60;99.90;;;;;;5065748;28;20460;-69
2023/04/23 06:45:46;;;;;;;30.88;18.30;;;12.80;99.90;;;;;;5072049;28;20092;-69
2023/04/23 06:48:11;;;;;;;25.65;15.05;;;13.20;99.90;;;;;;5071940;28;20056;-70
2023/04/23 06:50:38;;;;;;;27.35;16.08;;;13.70;99.90;;;;;;5071651;28;20041;-71
2023/04/23 06:53:04;;;;;;;25.75;13.02;;;14.20;99.90;;;;;;5072140;28;20012;-71
2023/04/23 06:55:30;;;;;;;25.58;13.93;;;14.70;99.90;;;;;;5072161;28;20024;-70
2023/04/23 06:57:56;;;;;;;20.88;11.25;;;15.20;99.90;;;;;;5074305;28;20028;-69
2023/04/23 07:00:22;;;;;;;24.88;13.15;;;15.40;99.90;;;;;;5075848;28;20016;-70
2023/04/23 07:02:48;;;;;;;25.65;14.48;;;15.60;99.90;;;;;;5075313;28;20384;-71
2023/04/23 07:05:14;;;;;;;24.05;13.25;;;16.10;99.90;;;;;;5075752;28;20031;-70
2023/04/23 07:07:41;;;;;;;23.13;12.73;;;16.50;99.90;;;;;;5075595;28;20025;-70
2023/04/23 07:10:08;;;;;;;23.13;12.88;;;16.80;99.90;;;;;;5075453;28;20032;-71
2023/04/23 07:12:35;;;;;;;23.42;13.23;;;17.20;99.90;;;;;;5075243;28;20021;-71
2023/04/23 07:15:01;;;;;;;24.65;13.70;;;17.20;99.90;;;;;;5075252;28;20017;-71
2023/04/23 07:17:26;;;;;;;24.20;12.68;;;17.10;99.90;;;;;;5075452;28;20356;-69
2023/04/23 07:19:52;;;;;;;21.35;11.15;;;16.70;99.90;;;;;;5075712;28;20457;-70
2023/04/23 07:22:17;;;;;;;22.63;12.15;;;16.60;99.90;;;;;;5075492;28;20016;-71
2023/04/23 07:24:43;;;;;;;21.15;10.45;;;16.50;99.90;;;;;;5075674;28;20422;-70
2023/04/23 07:27:09;;;;;;;24.75;14.50;;;16.30;99.90;;;;;;5074020;28;20027;-71
2023/04/23 07:29:34;;;;;;;23.67;12.07;;;15.90;99.90;;;;;;5075555;28;20051;-71
2023/04/23 07:32:00;;;;;;;22.05;11.60;;;15.70;99.90;;;;;;5075629;28;20028;-69
2023/04/23 07:34:26;;;;;;;22.08;11.40;;;15.50;99.90;;;;;;5075314;28;20025;-71
2023/04/23 07:36:51;;;;;;;19.85;10.93;;;15.50;99.90;;;;;;5070521;28;20044;-71
2023/04/23 07:39:17;;;;;;;22.13;11.50;;;15.50;99.90;;;;;;5073690;28;20161;-71
2023/04/23 07:41:43;;;;;;;18.88;11.20;;;15.50;99.90;;;;;;5075054;28;20036;-69
2023/04/23 07:44:08;;;;;;;20.90;10.55;;;15.50;99.90;;;;;;5074832;28;20068;-71
2023/04/23 07:46:34;;;;;;;28.60;15.88;;;15.40;99.90;;;;;;5074729;28;20107;-71
2023/04/23 07:48:59;;;;;;;17.20;8.65;;;15.60;99.90;;;;;;5070700;28;20362;-71
2023/04/23 07:51:25;;;;;;;21.70;8.75;;;15.90;99.90;;;;;;5061293;28;20029;-70
2023/04/23 07:53:55;;;;;;;15.23;6.97;;;16.20;99.90;;;;;;5075068;28;20024;-70
2023/04/23 07:56:21;;;;;;;21.25;10.18;;;16.30;99.90;;;;;;5074413;28;20020;-71
2023/04/23 07:58:47;;;;;;;19.70;10.88;;;16.50;99.90;;;;;;5074941;28;20090;-71
2023/04/23 08:01:13;;;;;;;21.85;9.23;;;16.90;99.90;;;;;;5075204;28;20025;-71
2023/04/23 08:03:39;;;;;;;16.02;8.43;;;17.80;99.90;;;;;;5074729;28;20364;-71
2023/04/23 08:06:05;;;;;;;17.17;8.10;;;18.30;99.90;;;;;;5074411;28;20020;-71
2023/04/23 08:08:30;;;;;;;17.05;8.60;;;18.80;99.90;;;;;;5073177;28;20020;-71
2023/04/23 08:10:56;;;;;;;17.98;8.65;;;19.20;99.90;;;;;;5073348;28;20039;-71
2023/04/23 08:13:22;;;;;;;17.30;7.68;;;19.60;99.90;;;;;;5074597;28;20056;-71
2023/04/23 08:15:48;;;;;;;20.60;9.55;;;20.00;99.90;;;;;;5074374;28;20066;-71
2023/04/23 08:18:14;;;;;;;15.30;8.35;;;20.50;99.90;;;;;;5074628;28;20127;-71
2023/04/23 08:20:40;;;;;;;17.92;7.97;;;21.40;99.90;;;;;;5074559;28;20078;-71
2023/04/23 08:23:06;;;;;;;15.85;6.63;;;22.50;99.90;;;;;;5074596;28;20024;-71
2023/04/23 08:25:31;;;;;;;16.42;7.22;;;23.30;98.20;;;;;;5074114;28;20093;-71
2023/04/23 08:27:57;;;;;;;14.25;5.95;;;24.10;97.00;;;;;;5074433;28;20045;-71
2023/04/23 08:30:23;;;;;;;14.98;7.28;;;24.10;96.70;;;;;;5074379;28;20464;-71
2023/04/23 08:32:52;;;;;;;14.77;6.28;;;23.90;96.30;;;;;;5074023;28;20096;-70
2023/04/23 08:35:18;;;;;;;15.88;7.65;;;24.00;96.30;;;;;;5074270;28;20031;-70
2023/04/23 08:37:45;;;;;;;18.58;10.10;;;24.10;95.70;;;;;;5074155;28;20066;-72
2023/04/23 08:40:11;;;;;;;16.40;7.80;;;24.50;96.20;;;;;;5073972;28;20036;-71
2023/04/23 08:43:00;;;;;;;13.38;7.35;;;25.00;95.20;;;;;;5072795;28;20486;-70
2023/04/23 08:45:26;;;;;;;14.35;6.82;;;25.50;94.00;;;;;;5061115;28;20040;-70
2023/04/23 08:47:55;;;;;;;14.48;6.70;;;25.80;93.10;;;;;;5072852;28;20032;-70
2023/04/23 08:50:22;;;;;;;18.67;8.13;;;25.80;92.50;;;;;;5070057;28;20043;-70
2023/04/23 08:52:55;;;;;;;12.82;6.72;;;25.30;93.00;;;;;;5072888;28;20017;-70
2023/04/23 08:55:22;;;;;;;13.57;6.30;;;25.40;94.10;;;;;;5071612;28;20487;-70
2023/04/23 08:57:48;;;;;;;13.73;6.70;;;26.00;92.90;;;;;;5068382;28;20025;-70
2023/04/23 09:00:17;;;;;;;12.52;6.20;;;26.60;92.10;;;;;;5071976;28;20035;-70
2023/04/23 09:02:45;;;;;;;14.57;6.47;;;27.00;91.40;;;;;;5071861;28;20029;-70
2023/04/23 09:05:12;;;;;;;15.43;7.07;;;26.80;91.40;;;;;;5070730;28;20044;-70
2023/04/23 09:07:38;;;;;;;13.55;6.55;;;27.00;91.20;;;;;;5071856;28;20032;-70
2023/04/23 09:10:05;;;;;;;13.57;6.15;;;27.60;91.40;;;;;;5071720;28;20072;-69
2023/04/23 09:12:33;;;;;;;12.68;5.63;;;28.00;90.30;;;;;;5069454;28;20480;-70
2023/04/23 09:14:58;;;;;;;12.55;5.63;;;27.90;89.30;;;;;;5070155;28;20487;-70
2023/04/23 09:17:28;;;;;;;14.98;6.85;;;27.70;89.90;;;;;;5071372;28;20040;-70
2023/04/23 09:19:54;;;;;;;17.98;6.35;;;28.30;90.00;;;;;;5067792;28;20031;-70
2023/04/23 09:22:50;;;;;;;13.05;5.93;;;28.70;87.90;;;;;;5072257;28;20024;-70
2023/04/23 09:25:18;;;;;;;11.15;4.40;;;29.20;87.40;;;;;;5067577;28;20024;-70
2023/04/23 09:27:45;;;;;;;13.63;5.05;;;28.80;86.00;;;;;;5069197;28;20032;-70
2023/04/23 09:30:12;;;;;;;15.35;5.70;;;27.90;87.00;;;;;;5057227;28;20021;-70
2023/04/23 09:32:40;;;;;;;9.95;4.85;;;27.60;87.70;;;;;;5068058;28;20109;-68
2023/04/23 09:35:18;;;;;;;15.32;5.75;;;26.90;87.40;;;;;;5071517;28;20021;-69
2023/04/23 09:37:47;;;;;;;15.60;5.82;;;25.40;90.50;;;;;;5071344;28;20028;-69
2023/04/23 09:40:16;;;;;;;14.50;5.85;;;24.10;92.20;;;;;;5071037;28;20028;-69
2023/04/23 09:42:47;;;;;;;11.13;4.45;;;23.80;92.40;;;;;;5071263;28;20020;-69
2023/04/23 09:45:13;;;;;;;13.80;5.55;;;23.20;92.80;;;;;;5071314;28;20032;-69
2023/04/23 09:47:40;;;;;;;12.15;5.07;;;22.80;93.90;;;;;;5071036;28;20089;-69
2023/04/23 09:50:09;;;;;;;10.05;4.05;;;22.60;93.90;;;;;;5069105;28;20032;-69
2023/04/23 09:52:38;;;;;;;14.45;4.00;;;22.40;93.50;;;;;;5071877;28;20020;-70
2023/04/23 09:55:04;;;;;;;14.98;4.45;;;22.40;93.70;;;;;;5067941;28;20032;-70
2023/04/23 09:57:50;;;;;;;13.73;4.88;;;22.50;93.60;;;;;;5071106;28;20032;-69
2023/04/23 10:00:19;;;;;;;12.77;4.88;;;22.70;93.90;;;;;;5070505;28;20485;-69
2023/04/23 10:02:47;;;;;;;7.45;2.80;;;23.30;92.80;;;;;;5071603;28;20469;-69
2023/04/23 10:05:18;;;;;;;10.38;3.67;;;23.30;92.40;;;;;;5069652;28;20028;-69
2023/04/23 10:07:53;;;;;;;9.80;3.92;;;23.60;92.20;;;;;;5070788;28;20115;-69
2023/04/23 10:10:19;;;;;;;6.22;2.75;;;24.30;91.80;;;;;;5070965;28;20119;-69
2023/04/23 10:12:45;;;;;;;8.40;3.25;;;24.70;90.80;;;;;;5071450;28;20178;-70
2023/04/23 10:15:13;;;;;;;9.65;3.92;;;24.70;91.10;;;;;;5071530;28;20516;-70
2023/04/23 10:17:39;;;;;;;9.10;3.45;;;24.50;91.20;;;;;;5071122;28;20457;-70
2023/04/23 10:20:07;;;;;;;7.35;2.88;;;24.20;91.00;;;;;;5065936;28;20062;-70
2023/04/23 10:22:34;;;;;;;7.55;3.47;;;24.20;91.40;;;;;;5072346;28;20027;-70
2023/04/23 10:25:07;;;;;;;10.80;3.78;;;24.30;90.90;;;;;;5070186;28;20052;-69
2023/04/23 10:27:36;;;;;;;10.30;3.08;;;23.80;91.50;;;;;;5070790;28;20089;-70
2023/04/23 10:30:03;;;;;;;12.73;3.00;;;23.70;91.60;;;;;;5031176;28;20072;-70
2023/04/23 10:32:32;;;;;;;9.25;3.05;;;23.50;91.50;;;;;;5034807;28;20049;-69
2023/04/23 10:34:57;;;;;;;7.25;2.88;;;23.30;91.90;;;;;;5035291;28;20025;-70
2023/04/23 10:37:24;;;;;;;7.45;2.95;;;23.30;91.40;;;;;;5034882;28;20028;-70
2023/04/23 10:39:54;;;;;;;10.90;4.13;;;23.60;91.00;;;;;;5036684;28;20029;-70
2023/04/23 10:42:20;;;;;;;8.18;2.50;;;23.30;91.00;;;;;;5036333;28;20017;-70
2023/04/23 10:44:47;;;;;;;9.30;3.58;;;23.10;91.20;;;;;;5036212;28;20036;-70
2023/04/23 10:47:16;;;;;;;8.23;3.33;;;23.30;91.40;;;;;;5036663;28;20172;-70
2023/04/23 10:49:42;;;;;;;5.97;2.33;;;23.50;91.10;;;;;;5035945;28;20088;-71
2023/04/23 10:52:13;;;;;;;12.52;4.10;;;23.30;91.00;;;;;;5036204;28;20025;-70
2023/04/23 10:54:40;;;;;;;9.93;3.92;;;23.00;92.00;;;;;;5036315;28;20046;-70
2023/04/23 10:57:06;;;;;;;11.02;3.53;;;22.90;92.30;;;;;;5036397;28;20059;-70
2023/04/23 10:59:34;;;;;;;10.35;4.32;;;22.80;92.60;;;;;;5035216;28;20029;-71
2023/04/23 11:02:05;;;;;;;8.75;3.88;;;22.60;92.70;;;;;;5035087;28;20026;-70
2023/04/23 11:04:33;;;;;;;9.70;3.50;;;22.10;92.70;;;;;;5035622;28;20056;-70
2023/04/23 11:07:09;;;;;;;7.68;3.60;;;21.80;92.90;;;;;;5020290;28;20017;-70
2023/04/23 11:09:47;;;;;;;14.23;3.60;;;21.60;93.40;;;;;;5035625;28;20049;-70
2023/04/23 11:12:30;;;;;;;11.68;3.20;;;21.50;93.90;;;;;;5035477;28;20034;-70
2023/04/23 11:15:00;;;;;;;9.90;3.38;;;21.50;93.70;;;;;;5019200;28;20125;-70
2023/04/23 11:17:31;;;;;;;10.18;3.15;;;21.40;93.30;;;;;;5035007;28;20581;-70
2023/04/23 11:20:05;;;;;;;10.95;3.25;;;21.30;93.70;;;;;;5035390;28;20029;-70
2023/04/23 11:22:39;;;;;;;11.45;2.42;;;21.10;93.90;;;;;;5034626;28;20017;-70
2023/04/23 11:25:26;;;;;;;10.60;2.90;;;21.10;94.00;;;;;;5035504;28;20458;-70
2023/04/23 11:27:54;;;;;;;8.70;3.08;;;21.00;93.60;;;;;;5039592;28;20025;-70
2023/04/23 11:30:21;;;;;;;10.45;3.17;;;21.20;94.20;;;;;;5069471;28;20462;-70
2023/04/23 11:32:53;;;;;;;8.38;3.20;;;21.30;93.50;;;;;;5073700;28;20033;-70
2023/04/23 11:35:20;;;;;;;11.63;3.72;;;21.30;93.70;;;;;;5075499;28;20032;-69
2023/04/23 11:37:48;;;;;;;9.50;3.28;;;21.40;94.00;;;;;;5075493;28;20090;-70
2023/04/23 11:40:18;;;;;;;7.55;2.53;;;21.50;93.90;;;;;;5075196;28;20031;-70
2023/04/23 11:42:54;;;;;;;6.10;3.17;;;21.60;93.40;;;;;;5074758;28;20021;-70
2023/04/23 11:45:24;;;;;;;12.77;3.42;;;21.40;93.30;;;;;;5074812;28;20047;-70
2023/04/23 11:47:55;;;;;;;14.50;4.53;;;21.30;93.40;;;;;;5065201;28;20029;-70
2023/04/23 11:50:27;;;;;;;8.90;2.95;;;21.00;93.80;;;;;;5070190;28;20097;-70
2023/04/23 11:52:53;;;;;;;;;;;21.10;94.00;;;;;;5074741;28;20017;-69
2023/04/23 11:55:19;;;;;;;10.07;3.38;;;21.10;93.70;;;;;;5066560;28;19939;-70
2023/04/23 11:57:47;;;;;;;9.73;2.75;;;21.10;94.30;;;;;;5074624;28;20384;-70
2023/04/23 12:00:20;;;;;;;7.93;2.92;;;21.20;93.50;;;;;;5074680;28;20025;-70
2023/04/23 12:02:57;;;;;;;6.88;2.55;;;21.00;93.70;;;;;;5074883;28;20064;-70
2023/04/23 12:05:37;;;;;;;8.05;2.58;;;20.90;93.70;;;;;;5074874;28;20103;-70
2023/04/23 12:08:07;;;;;;;8.32;2.53;;;20.70;93.90;;;;;;5074848;28;20051;-69
2023/04/23 12:10:40;;;;;;;12.70;2.70;;;20.60;94.20;;;;;;5074037;28;20040;-70
2023/04/23 12:13:06;;;;;;;9.05;2.90;;;20.50;94.50;;;;;;5059623;28;20474;-70
2023/04/23 12:15:31;;;;;;;8.65;2.80;;;20.50;94.30;;;;;;5074487;28;20028;-70
2023/04/23 12:18:09;;;;;;;9.48;2.90;;;20.60;94.10;;;;;;5074385;28;20373;-70
2023/04/23 12:20:35;;;;;;;5.90;2.10;;;20.70;94.30;;;;;;5074426;28;20044;-70
2023/04/23 12:23:07;;;;;;;7.78;2.53;;;20.70;94.20;;;;;;5073201;28;20077;-70
2023/04/23 12:25:34;;;;;;;23.50;3.28;;;20.70;93.80;;;;;;5074632;28;20024;-69
2023/04/23 12:28:01;;;;;;;6.57;2.13;;;20.60;94.20;;;;;;5074255;28;20484;-70
2023/04/23 12:30:31;;;;;;;5.55;2.33;;;20.60;94.20;;;;;;5073830;28;20036;-70
2023/04/23 12:33:05;;;;;;;5.93;1.80;;;20.60;94.00;;;;;;5058004;28;20108;-70
2023/04/23 12:35:44;;;;;;;6.63;1.55;;;20.90;92.90;;;;;;5073944;28;20031;-70